Country
Station

 

Weather  for  Hyakuri Ab  -  Japan    Japan

  
18 °C (64 °F)
    
 
 

Current METAR for Hyakuri Ab is :

RJAH 181000Z VRB02KT 8000 -SHRA FEW015 BKN050 BKN080 18/16 Q1010

 

This is a report for Hyakuri Ab - Japan.
 
The report was made 15 minutes ago, at 10:00 UTC .
The wind was blowing at a speed of 1.0 meters per second (2.3 miles per hour) from variable directions.
 
The temperature was 18 °C (64 °F), with a dew-point at 16 °C (61 °F).
The atmospheric pressure was 1010 hPa (29.83 inHg).
The relative humidity was 88.1%.
 
There were a few clouds at a height of 457 meters (1500 feet), broken clouds at a height of 1524 meters (5000 feet) and broken clouds at a height of 2438 meters (8000 feet).
 
The overall visibility was 8.0 kilometers (5.0 miles).
 
Currently showers of light rain.

 
 
 
 

Country :   A   B   C   D   E   F   G   H   I   J   K   L   M   N   O   P   Q   R   S   T   U   V   W   Y   Z

 

Site Info  |  Disclaimer  |  Credits  |  Privacy
Contact us  |  Add to favorites
© 2013-2019 METARs - All rights reserved